createdAt,value
2019-03-18T00:04:31.485Z,99664.51
2019-03-18T00:09:33.608Z,99657.24
2019-03-18T00:14:35.838Z,99663.36
2019-03-18T00:19:42.772Z,99667.52
2019-03-18T00:24:44.331Z,99673.27
2019-03-18T00:29:46.687Z,99665.52
2019-03-18T00:34:50.177Z,99678.14
2019-03-18T00:39:54.255Z,99693.21
2019-03-18T00:44:58.288Z,99706.78
2019-03-18T00:50:00.449Z,99718.85
2019-03-18T00:55:03.686Z,99713.59
2019-03-18T01:00:06.191Z,99712.56
2019-03-18T01:05:08.755Z,99726.14
2019-03-18T01:10:10.946Z,99733.86
2019-03-18T01:15:26.855Z,99741.06
2019-03-18T01:20:17.926Z,99748.70
2019-03-18T01:25:20.244Z,99740.27
2019-03-18T01:30:22.351Z,99744.15
2019-03-18T01:35:24.551Z,99744.19
2019-03-18T01:40:26.646Z,99732.54
2019-03-18T01:45:40.725Z,99744.68
2019-03-18T01:50:41.470Z,99760.77
2019-03-18T01:55:52.930Z,99757.63
2019-03-18T02:01:03.473Z,99767.53
2019-03-18T02:06:23.351Z,99764.23
2019-03-18T02:11:26.638Z,99768.89
2019-03-18T02:16:28.707Z,99774.13
2019-03-18T02:21:44.623Z,99770.52
2019-03-18T02:27:05.562Z,99772.31
2019-03-18T02:32:07.673Z,99772.22
2019-03-18T02:37:16.303Z,99770.59
2019-03-18T02:42:34.455Z,99781.80
2019-03-18T02:47:38.691Z,99798.80
2019-03-18T02:53:14.021Z,99797.49
2019-03-18T02:58:16.130Z,99812.17
2019-03-18T03:03:30.681Z,99809.73
2019-03-18T03:08:34.759Z,99810.23
2019-03-18T03:13:48.832Z,99813.09
2019-03-18T03:19:25.850Z,99817.69
2019-03-18T03:24:28.432Z,99812.98
2019-03-18T03:29:44.582Z,99814.62
2019-03-18T03:35:25.113Z,99823.73
2019-03-18T03:40:29.156Z,99836.59
2019-03-18T03:45:40.993Z,99838.49
2019-03-18T03:50:47.863Z,99862.73
2019-03-18T03:55:50.040Z,99857.89
2019-03-18T04:00:52.452Z,99866.15
2019-03-18T04:06:44.740Z,99858.83
2019-03-18T04:11:59.965Z,99863.42
2019-03-18T04:17:04.325Z,99872.30
2019-03-18T04:22:06.801Z,99879.98
2019-03-18T04:27:09.018Z,99880.47
2019-03-18T04:32:16.674Z,99876.08
2019-03-18T04:37:56.448Z,99876.21
2019-03-18T04:43:01.595Z,99875.50
2019-03-18T04:48:03.637Z,99877.38
2019-03-18T04:53:05.782Z,99875.48
2019-03-18T04:58:07.874Z,99870.84
2019-03-18T05:03:09.989Z,99883.61
2019-03-18T05:08:12.149Z,99877.35
2019-03-18T05:13:14.238Z,99880.52
2019-03-18T05:18:16.330Z,99874.97
2019-03-18T05:23:18.459Z,99876.49
2019-03-18T05:28:20.582Z,99882.98
2019-03-18T05:33:30.359Z,99893.05
2019-03-18T05:38:32.845Z,99899.79
2019-03-18T05:43:35.023Z,99892.92
2019-03-18T05:49:07.882Z,99890.09
2019-03-18T05:54:23.588Z,99906.28
2019-03-18T05:59:47.282Z,99894.72
2019-03-18T06:04:49.405Z,99892.23
2019-03-18T06:09:51.563Z,99904.53
2019-03-18T06:15:00.472Z,99896.05
2019-03-18T06:20:07.281Z,99902.91
2019-03-18T06:25:09.395Z,99916.84
2019-03-18T06:30:26.203Z,99924.67
2019-03-18T06:35:31.355Z,99925.27
2019-03-18T06:40:33.464Z,99919.71
2019-03-18T06:45:39.561Z,99939.94
2019-03-18T06:50:41.899Z,99937.61
2019-03-18T06:55:47.201Z,99932.84
2019-03-18T07:00:49.282Z,99940.75
2019-03-18T07:05:51.715Z,99942.23
2019-03-18T07:10:54.038Z,99933.30
2019-03-18T07:16:05.858Z,99939.77
2019-03-18T07:21:13.528Z,99943.78
2019-03-18T07:26:23.411Z,99958.17
2019-03-18T07:31:26.963Z,99969.58
2019-03-18T07:36:33.099Z,99968.20
2019-03-18T07:41:39.573Z,99969.91
2019-03-18T07:46:41.782Z,99971.47
2019-03-18T07:51:44.862Z,99969.14
2019-03-18T07:57:00.766Z,99973.17
2019-03-18T08:02:03.547Z,99977.33
2019-03-18T08:07:08.163Z,99988.67
2019-03-18T08:12:18.821Z,99992.78
2019-03-18T08:17:25.894Z,99998.03
2019-03-18T08:22:28.043Z,100007.13
2019-03-18T08:27:35.691Z,100022.32
2019-03-18T08:32:42.069Z,100012.42
2019-03-18T08:37:50.449Z,100012.08
2019-03-18T08:42:56.290Z,100020.77
2019-03-18T08:48:00.167Z,100023.84
2019-03-18T08:53:04.945Z,100047.06
2019-03-18T08:58:13.514Z,100059.67
2019-03-18T09:03:19.072Z,100062.17
2019-03-18T09:08:26.606Z,100079.07
2019-03-18T09:13:31.891Z,100087.25
2019-03-18T09:18:33.131Z,100085.67
2019-03-18T09:23:35.328Z,100082.14
2019-03-18T09:28:37.383Z,100082.10
2019-03-18T09:33:39.443Z,100097.00
2019-03-18T09:38:42.438Z,100096.14
2019-03-18T09:43:44.661Z,100106.25
2019-03-18T09:48:46.842Z,100101.06
2019-03-18T09:53:51.309Z,100101.47
2019-03-18T09:58:53.499Z,100106.84
2019-03-18T10:03:55.856Z,100108.75
2019-03-18T10:08:57.947Z,100114.42
2019-03-18T10:14:00.255Z,100116.08
2019-03-18T10:19:02.423Z,100128.62
2019-03-18T10:24:05.823Z,100137.59
2019-03-18T10:29:12.514Z,100133.94
2019-03-18T10:34:14.627Z,100131.61
2019-03-18T10:39:16.869Z,100123.72
2019-03-18T10:44:22.725Z,100135.13
2019-03-18T10:49:25.020Z,100138.13
2019-03-18T10:54:31.069Z,100139.91
2019-03-18T10:59:31.290Z,100144.95
2019-03-18T11:04:33.459Z,100147.51
2019-03-18T11:09:35.575Z,100134.41
2019-03-18T11:14:37.890Z,100141.00
2019-03-18T11:19:40.185Z,100147.94
2019-03-18T11:24:42.373Z,100138.45
2019-03-18T11:29:44.514Z,100143.34
2019-03-18T11:34:46.748Z,100139.22
2019-03-18T11:39:49.062Z,100139.15
2019-03-18T11:45:02.500Z,100141.01
2019-03-18T11:50:10.935Z,100141.78
2019-03-18T11:55:11.169Z,100149.89
2019-03-18T12:00:15.071Z,100147.03
2019-03-18T12:05:19.289Z,100158.09
2019-03-18T12:10:21.523Z,100155.69
2019-03-18T12:15:23.897Z,100163.70
2019-03-18T12:20:26.210Z,100168.30
2019-03-18T12:25:28.319Z,100160.52
2019-03-18T12:30:30.491Z,100138.17
2019-03-18T12:35:34.505Z,100152.56
2019-03-18T12:40:37.226Z,100161.12
2019-03-18T12:45:39.404Z,100159.64
2019-03-18T12:50:55.072Z,100148.09
2019-03-18T12:55:45.955Z,100161.38
2019-03-18T13:00:48.281Z,100154.32
2019-03-18T13:05:53.416Z,100155.80
2019-03-18T13:10:56.146Z,100159.32
2019-03-18T13:16:22.810Z,100161.58
2019-03-18T13:21:24.942Z,100153.08
2019-03-18T13:26:27.029Z,100167.77
2019-03-18T13:31:29.258Z,100151.52
2019-03-18T13:36:31.314Z,100151.25
2019-03-18T13:41:33.396Z,100157.86
2019-03-18T13:46:35.472Z,100165.13
2019-03-18T13:51:37.541Z,100165.26
2019-03-18T13:56:39.584Z,100172.00
2019-03-18T14:01:41.742Z,100178.30
2019-03-18T14:06:43.999Z,100185.49
2019-03-18T14:11:46.232Z,100185.14
2019-03-18T14:16:49.777Z,100190.95
2019-03-18T14:21:56.376Z,100204.00
2019-03-18T14:27:03.269Z,100211.20
2019-03-18T14:32:24.483Z,100210.47
2019-03-18T14:37:26.552Z,100220.75
2019-03-18T14:42:32.392Z,100228.86
2019-03-18T14:47:34.609Z,100254.02
2019-03-18T14:52:36.999Z,100254.86
2019-03-18T14:57:39.228Z,100285.55
2019-03-18T15:02:47.241Z,100251.14
2019-03-18T15:07:49.352Z,100251.69
2019-03-18T15:12:57.191Z,100246.23
2019-03-18T15:17:59.423Z,100250.58
2019-03-18T15:23:01.494Z,100259.34
2019-03-18T15:28:03.535Z,100271.13
2019-03-18T15:33:05.868Z,100281.55
2019-03-18T15:38:08.006Z,100278.99
2019-03-18T15:43:10.121Z,100287.39
2019-03-18T15:48:12.231Z,100295.38
2019-03-18T15:53:15.795Z,100284.63
2019-03-18T15:58:21.691Z,100291.33
2019-03-18T16:03:29.511Z,100301.80
2019-03-18T16:08:32.097Z,100304.67
2019-03-18T16:13:34.178Z,100302.14
2019-03-18T16:18:36.264Z,100312.27
2019-03-18T16:23:41.231Z,100319.22
2019-03-18T16:28:46.028Z,100323.91
2019-03-18T16:33:48.315Z,100335.99
2019-03-18T16:38:50.364Z,100339.58
2019-03-18T16:43:52.439Z,100342.05
2019-03-18T16:49:07.896Z,100339.05
2019-03-18T16:54:10.040Z,100358.63
2019-03-18T16:59:31.497Z,100361.25
2019-03-18T17:04:32.874Z,100376.63
2019-03-18T17:09:35.035Z,100391.30
2019-03-18T17:14:37.102Z,100403.42
2019-03-18T17:19:39.299Z,100410.77
2019-03-18T17:24:41.478Z,100415.51
2019-03-18T17:29:43.566Z,100417.02
2019-03-18T17:34:45.687Z,100432.22
2019-03-18T17:39:47.786Z,100441.30
2019-03-18T17:44:49.838Z,100453.12
2019-03-18T17:49:51.922Z,100460.19
2019-03-18T17:54:54.103Z,100479.38
2019-03-18T17:59:56.277Z,100479.75
2019-03-18T18:05:03.125Z,100482.28
2019-03-18T18:10:05.916Z,100486.92
2019-03-18T18:15:07.994Z,100498.48
2019-03-18T18:20:10.407Z,100503.77
2019-03-18T18:25:12.460Z,100516.69
2019-03-18T18:30:17.484Z,100527.06
2019-03-18T18:35:19.556Z,100531.86
2019-03-18T18:40:21.660Z,100540.33
2019-03-18T18:45:23.789Z,100550.36
2019-03-18T18:50:25.856Z,100563.08
2019-03-18T18:55:27.955Z,100568.66
2019-03-18T19:00:31.934Z,100571.77
2019-03-18T19:05:33.977Z,100583.77
2019-03-18T19:10:36.024Z,100592.55
2019-03-18T19:15:38.177Z,100593.39
2019-03-18T19:20:40.485Z,100607.52
2019-03-18T19:25:42.570Z,100613.45
2019-03-18T19:30:46.896Z,100621.17
2019-03-18T19:35:49.034Z,100617.98
2019-03-18T19:40:53.096Z,100625.67
2019-03-18T19:45:55.201Z,100629.83
2019-03-18T19:51:02.088Z,100637.30
2019-03-18T19:56:04.273Z,100646.91
2019-03-18T20:01:06.313Z,100649.20
2019-03-18T20:06:08.376Z,100657.28
2019-03-18T20:11:10.467Z,100662.38
2019-03-18T20:16:12.619Z,100672.20
2019-03-18T20:21:14.732Z,100676.48
2019-03-18T20:26:16.869Z,100685.30
2019-03-18T20:31:25.681Z,100697.18
2019-03-18T20:36:22.931Z,100701.32
2019-03-18T20:41:25.101Z,100707.65
2019-03-18T20:46:27.169Z,100718.22
2019-03-18T20:51:29.266Z,100725.19
2019-03-18T20:56:31.326Z,100728.89
2019-03-18T21:01:33.362Z,100735.19
2019-03-18T21:06:36.853Z,100733.52
2019-03-18T21:11:39.100Z,100743.64
2019-03-18T21:16:41.332Z,100754.92
2019-03-18T21:21:43.552Z,100764.29
2019-03-18T21:26:45.650Z,100766.88
2019-03-18T21:31:47.909Z,100777.48
2019-03-18T21:36:50.441Z,100781.91
2019-03-18T21:41:52.520Z,100788.17
2019-03-18T21:46:54.752Z,100785.98
2019-03-18T21:51:56.927Z,100794.39
2019-03-18T21:56:59.000Z,100802.44
2019-03-18T22:02:01.245Z,100801.39
2019-03-18T22:07:03.439Z,100803.56
2019-03-18T22:12:05.544Z,100804.50
2019-03-18T22:17:09.585Z,100820.46
2019-03-18T22:22:11.837Z,100824.59
2019-03-18T22:27:13.899Z,100827.86
2019-03-18T22:32:17.171Z,100824.53
2019-03-18T22:37:19.273Z,100827.93
2019-03-18T22:42:21.699Z,100834.98
2019-03-18T22:47:26.597Z,100838.44
2019-03-18T22:52:28.690Z,100840.56
2019-03-18T22:57:32.596Z,100838.95
2019-03-18T23:02:37.514Z,100838.11
2019-03-18T23:07:39.578Z,100844.92
2019-03-18T23:12:41.754Z,100857.70
2019-03-18T23:17:43.929Z,100859.21
2019-03-18T23:22:46.400Z,100865.02
2019-03-18T23:27:49.817Z,100863.77
2019-03-18T23:32:56.601Z,100864.65
2019-03-18T23:37:58.716Z,100871.80
2019-03-18T23:43:00.775Z,100886.10
2019-03-18T23:48:03.283Z,100884.96
2019-03-18T23:53:05.463Z,100887.62
2019-03-18T23:58:08.028Z,100885.63
